Current Weather

Diourbel

Diourbel, Senegal (GOOD)

Report from: Monday, May 23, 2022 8:00 AM GMT
Current time: Monday, May 23, 2022 8:33 AM GMT

Nearby weather
Weather history
Weather forecast

Temperature22.0°C (71.6°F)
Dew point20.0°C (68.0°F)
Winds 6 kts (3.1 m/s, 6.9 mph) Northwest (320°)
Visibility6.2 mi. (10 km)
Clouds Ceiling: Broken clouds 1,000 ft. (305 m)
Altimeter29.91 in.Hg (1013 mB)
Relative humidity88 %
Density altitude1,141 ft. (348 m)
Flight conditions Marginal Visual Meteorological Conditions
Raw dataGOOD 230800Z 32006KT 9999 BKN010 22/20 Q1013
An error has occurred. This application may no longer respond until reloaded. Reload 🗙